Time;durP1;ratioP1;P1;durP2;ratioP2;P2;SDS_P1;SDS_P2;PMS_P1;PMS_P2;Temp;Humidity;BMP_temperature;BMP_pressure;BME280_temperature;BME280_humidity;BME280_pressure;Samples;Min_cycle;Max_cycle;Signal;HPM_P1;HPM_P2
2022/07/14 00:02:26;;;;;;;14.60;3.78;;;;;;;;;;5261196;28;20056;-85
2022/07/14 00:04:58;;;;;;;13.30;4.10;;;;;;;;;;5265751;28;20127;-84
2022/07/14 00:07:32;;;;;;;14.27;4.40;;;;;;;;;;5289969;28;20384;-84
2022/07/14 00:10:07;;;;;;;10.07;3.00;;;;;;;;;;5269821;28;20120;-84
2022/07/14 00:12:47;;;;;;;11.07;3.20;;;;;;;;;;5269752;28;20070;-84
2022/07/14 00:15:25;;;;;;;17.02;4.00;;;;;;;;;;5267780;28;20123;-84
2022/07/14 00:18:20;;;;;;;13.63;3.80;;;;;;;;;;5269638;28;20119;-83
2022/07/14 00:20:52;;;;;;;11.35;4.45;;;;;;;;;;5272672;28;20115;-84
2022/07/14 00:23:40;;;;;;;9.15;4.20;;;;;;;;;;5266628;28;20021;-85
2022/07/14 00:26:28;;;;;;;10.52;4.43;;;;;;;;;;5262228;28;20498;-86
2022/07/14 00:29:14;;;;;;;11.90;3.90;;;;;;;;;;5280100;28;20040;-85
2022/07/14 00:31:46;;;;;;;18.50;5.57;;;;;;;;;;5267466;28;20930;-84
2022/07/14 00:34:26;;;;;;;17.20;5.40;;;;;;;;;;5259287;28;20304;-84
2022/07/14 00:37:18;;;;;;;18.08;5.22;;;;;;;;;;5255176;28;20090;-85
2022/07/14 00:42:57;;;;;;;14.55;4.85;;;;;;;;;;5254239;28;20053;-84
2022/07/14 00:45:34;;;;;;;17.05;5.00;;;;;;;;;;5250285;28;20021;-85
2022/07/14 00:48:12;;;;;;;17.15;5.65;;;;;;;;;;5261818;28;20052;-84
2022/07/14 00:50:44;;;;;;;11.93;4.95;;;;;;;;;;5258656;28;20037;-85
2022/07/14 00:53:16;;;;;;;13.02;4.68;;;;;;;;;;5254954;28;20091;-85
2022/07/14 00:55:57;;;;;;;10.05;4.43;;;;;;;;;;5261822;28;20032;-85
2022/07/14 00:58:31;;;;;;;15.77;5.97;;;;;;;;;;5265275;28;20042;-83
2022/07/14 01:01:18;;;;;;;12.93;4.88;;;;;;;;;;5266273;28;20025;-85
2022/07/14 01:04:02;;;;;;;11.95;5.47;;;;;;;;;;5255549;28;20033;-83
2022/07/14 01:06:34;;;;;;;12.23;4.65;;;;;;;;;;5280701;28;20045;-84
2022/07/14 01:09:08;;;;;;;15.00;5.43;;;;;;;;;;5278901;28;20033;-84
2022/07/14 01:11:47;;;;;;;19.85;4.85;;;;;;;;;;5252841;28;20040;-84
2022/07/14 01:14:27;;;;;;;10.43;4.07;;;;;;;;;;5256839;28;20040;-85
2022/07/14 01:17:04;;;;;;;16.30;5.00;;;;;;;;;;5278044;28;20124;-84
2022/07/14 01:19:41;;;;;;;8.93;4.85;;;;;;;;;;5276698;28;20029;-84
2022/07/14 01:22:14;;;;;;;;;;;;;;;;;;5277556;28;20444;-84
2022/07/14 01:24:46;;;;;;;12.50;4.30;;;;;;;;;;5260896;28;21137;-84
2022/07/14 01:27:19;;;;;;;12.50;4.55;;;;;;;;;;5275224;28;20027;-85
2022/07/14 01:29:54;;;;;;;17.00;4.63;;;;;;;;;;5256685;28;20596;-84
2022/07/14 01:32:31;;;;;;;11.30;4.38;;;;;;;;;;5255122;28;20037;-84
2022/07/14 01:35:06;;;;;;;12.00;4.57;;;;;;;;;;5258468;28;20037;-84
2022/07/14 01:37:43;;;;;;;12.93;4.55;;;;;;;;;;5267244;28;20477;-84
2022/07/14 01:40:17;;;;;;;15.52;4.88;;;;;;;;;;5275225;28;20242;-85
2022/07/14 01:42:49;;;;;;;14.55;5.35;;;;;;;;;;5280524;28;20029;-85
2022/07/14 01:45:23;;;;;;;15.52;5.60;;;;;;;;;;5258366;28;20041;-84
2022/07/14 01:47:57;;;;;;;13.88;6.05;;;;;;;;;;5258381;28;20080;-85
2022/07/14 01:50:30;;;;;;;19.10;5.97;;;;;;;;;;5250937;28;20450;-84
2022/07/14 01:53:04;;;;;;;11.32;4.80;;;;;;;;;;5282802;28;20041;-84
2022/07/14 01:55:35;;;;;;;17.75;5.38;;;;;;;;;;5260656;28;20029;-85
2022/07/14 01:58:07;;;;;;;16.98;5.13;;;;;;;;;;5262674;28;20045;-84
2022/07/14 02:00:43;;;;;;;16.00;5.43;;;;;;;;;;5268472;28;20471;-84
2022/07/14 02:03:17;;;;;;;10.70;4.82;;;;;;;;;;5255094;28;20061;-85
2022/07/14 02:05:48;;;;;;;12.30;4.97;;;;;;;;;;5260216;28;20037;-85
2022/07/14 02:08:22;;;;;;;18.05;6.10;;;;;;;;;;5270526;28;20028;-85
2022/07/14 02:13:46;;;;;;;13.13;5.07;;;;;;;;;;5276003;28;20056;-84
2022/07/14 02:16:23;;;;;;;17.92;5.07;;;;;;;;;;5254881;28;20086;-84
2022/07/14 02:18:57;;;;;;;16.48;4.90;;;;;;;;;;5281602;28;20099;-84
2022/07/14 02:21:28;;;;;;;11.50;5.00;;;;;;;;;;5267873;28;20028;-85
2022/07/14 02:24:00;;;;;;;12.15;5.25;;;;;;;;;;5281240;28;20025;-84
2022/07/14 02:26:31;;;;;;;18.23;5.72;;;;;;;;;;5254506;28;20190;-85
2022/07/14 02:29:06;;;;;;;17.10;4.80;;;;;;;;;;5255985;28;20041;-85
2022/07/14 02:31:44;;;;;;;14.20;4.60;;;;;;;;;;5275865;28;20033;-84
2022/07/14 02:34:16;;;;;;;17.65;5.68;;;;;;;;;;5261545;28;20032;-85
2022/07/14 02:36:47;;;;;;;16.98;6.20;;;;;;;;;;5258480;28;20334;-84
2022/07/14 02:39:21;;;;;;;14.32;4.90;;;;;;;;;;5257591;28;20037;-84
2022/07/14 02:41:53;;;;;;;15.07;5.10;;;;;;;;;;5265137;28;20017;-84
2022/07/14 02:44:34;;;;;;;17.85;6.20;;;;;;;;;;5268188;28;20386;-85
2022/07/14 02:47:05;;;;;;;18.48;5.47;;;;;;;;;;5281279;28;20028;-84
2022/07/14 02:49:39;;;;;;;13.82;5.57;;;;;;;;;;5261511;28;20466;-85
2022/07/14 02:52:17;;;;;;;19.42;6.05;;;;;;;;;;5258847;28;20065;-85
2022/07/14 02:54:54;;;;;;;15.27;5.80;;;;;;;;;;5270934;28;20048;-85
2022/07/14 02:57:25;;;;;;;;;;;;;;;;;;5267042;28;21392;-84
2022/07/14 03:00:08;;;;;;;12.40;5.33;;;;;;;;;;5281484;28;19912;-84
2022/07/14 03:03:01;;;;;;;16.88;6.13;;;;;;;;;;5275435;28;20037;-85
2022/07/14 03:05:32;;;;;;;13.85;5.40;;;;;;;;;;5251292;28;20140;-84
2022/07/14 03:08:10;;;;;;;14.75;5.72;;;;;;;;;;5264905;28;20081;-84
2022/07/14 03:10:44;;;;;;;15.07;6.15;;;;;;;;;;5261699;28;20059;-85
2022/07/14 03:13:15;;;;;;;21.10;7.05;;;;;;;;;;5285474;28;20029;-84
2022/07/14 03:15:46;;;;;;;18.25;7.00;;;;;;;;;;5259191;28;20454;-84
2022/07/14 03:18:29;;;;;;;14.63;6.10;;;;;;;;;;5275061;28;20503;-84
2022/07/14 03:21:27;;;;;;;17.17;6.43;;;;;;;;;;5259394;28;20107;-84
2022/07/14 03:23:58;;;;;;;16.13;6.35;;;;;;;;;;5278203;28;20118;-83
2022/07/14 03:26:47;;;;;;;19.33;7.07;;;;;;;;;;5265287;28;20033;-83
2022/07/14 03:29:58;;;;;;;21.20;6.78;;;;;;;;;;5272197;28;20076;-82
2022/07/14 03:32:35;;;;;;;16.77;6.75;;;;;;;;;;5263017;28;20037;-84
2022/07/14 03:38:27;;;;;;;20.63;7.18;;;;;;;;;;5254421;28;20197;-83
2022/07/14 03:43:58;;;;;;;20.90;5.82;;;;;;;;;;5284555;28;20044;-83
2022/07/14 03:46:38;;;;;;;17.48;7.22;;;;;;;;;;5256749;28;20032;-85
2022/07/14 03:49:12;;;;;;;19.50;7.82;;;;;;;;;;5255965;28;20025;-82
2022/07/14 03:51:44;;;;;;;19.90;7.80;;;;;;;;;;5262739;28;20029;-83
2022/07/14 03:54:15;;;;;;;16.33;7.45;;;;;;;;;;5278648;28;20496;-83
2022/07/14 03:56:52;;;;;;;20.23;6.47;;;;;;;;;;5263134;28;20033;-83
2022/07/14 04:00:01;;;;;;;20.20;8.25;;;;;;;;;;5268459;28;20036;-83
2022/07/14 04:02:35;;;;;;;17.65;6.50;;;;;;;;;;5262704;28;20032;-82
2022/07/14 04:05:15;;;;;;;21.30;8.60;;;;;;;;;;5268555;28;20036;-82
2022/07/14 04:07:46;;;;;;;20.42;8.60;;;;;;;;;;5269291;28;20029;-84
2022/07/14 04:10:17;;;;;;;21.75;8.63;;;;;;;;;;5262607;28;20041;-84
2022/07/14 04:12:49;;;;;;;23.70;8.05;;;;;;;;;;5240527;28;20028;-84
2022/07/14 04:15:23;;;;;;;18.15;8.13;;;;;;;;;;5262739;28;20136;-84
2022/07/14 04:17:55;;;;;;;16.13;6.82;;;;;;;;;;5239338;28;20122;-84
2022/07/14 04:20:26;;;;;;;19.80;8.45;;;;;;;;;;5234081;28;20037;-84
2022/07/14 04:23:00;;;;;;;28.33;9.23;;;;;;;;;;5240115;28;20470;-84
2022/07/14 04:25:34;;;;;;;23.90;8.77;;;;;;;;;;5251302;28;20025;-84
2022/07/14 04:28:11;;;;;;;26.88;10.43;;;;;;;;;;5252022;28;20393;-85
2022/07/14 04:30:45;;;;;;;21.10;9.18;;;;;;;;;;5235105;28;20358;-84
2022/07/14 04:33:53;;;;;;;;;;;;;;;;;;;;;
2022/07/14 04:39:57;;;;;;;20.65;8.63;;;;;;;;;;5255525;28;20056;-84
2022/07/14 04:42:29;;;;;;;16.98;7.82;;;;;;;;;;5272268;28;20089;-84
2022/07/14 04:45:09;;;;;;;20.00;9.52;;;;;;;;;;5251835;28;20034;-84
2022/07/14 04:47:52;;;;;;;26.70;9.90;;;;;;;;;;5243350;28;20048;-84
2022/07/14 04:56:37;;;;;;;24.67;9.63;;;;;;;;;;5245846;28;20058;-84
2022/07/14 04:59:17;;;;;;;20.85;8.02;;;;;;;;;;5250875;28;20370;-84
2022/07/14 05:02:04;;;;;;;20.27;8.95;;;;;;;;;;5251318;28;20034;-84
2022/07/14 05:04:41;;;;;;;;;;;;;;;;;;5253454;28;20587;-86
2022/07/14 05:07:17;;;;;;;21.47;8.23;;;;;;;;;;5240701;28;19964;-84
2022/07/14 05:09:49;;;;;;;23.88;9.48;;;;;;;;;;5247659;28;20363;-82
2022/07/14 05:12:27;;;;;;;19.58;8.90;;;;;;;;;;5264087;28;20033;-84
2022/07/14 05:15:02;;;;;;;16.05;7.60;;;;;;;;;;5264745;28;20037;-85
2022/07/14 05:17:36;;;;;;;19.48;8.25;;;;;;;;;;5270657;28;20125;-85
2022/07/14 05:20:07;;;;;;;20.20;9.68;;;;;;;;;;5269939;28;20030;-85
2022/07/14 05:22:52;;;;;;;23.02;8.18;;;;;;;;;;5267050;28;20029;-84
2022/07/14 05:25:23;;;;;;;12.60;6.43;;;;;;;;;;5261987;28;20040;-85
2022/07/14 05:27:54;;;;;;;23.90;8.75;;;;;;;;;;5259038;28;20025;-85
2022/07/14 05:30:26;;;;;;;16.13;6.35;;;;;;;;;;5254423;28;20029;-85
2022/07/14 05:33:00;;;;;;;19.25;6.78;;;;;;;;;;5274811;28;20086;-85
2022/07/14 05:35:31;;;;;;;12.93;5.35;;;;;;;;;;5304131;28;20035;-85
2022/07/14 05:38:02;;;;;;;20.55;7.65;;;;;;;;;;5299264;28;20408;-84
2022/07/14 05:40:37;;;;;;;18.13;7.22;;;;;;;;;;5283739;28;20037;-84
2022/07/14 05:43:16;;;;;;;25.05;7.07;;;;;;;;;;5262193;28;20142;-85
2022/07/14 05:45:49;;;;;;;22.25;6.57;;;;;;;;;;5282208;28;20063;-85
2022/07/14 05:48:21;;;;;;;16.67;6.20;;;;;;;;;;5270104;28;20125;-85
2022/07/14 05:50:52;;;;;;;10.73;4.77;;;;;;;;;;5283970;28;20028;-85
2022/07/14 05:53:23;;;;;;;16.80;5.60;;;;;;;;;;5280954;28;20026;-85
2022/07/14 05:55:54;;;;;;;15.93;4.97;;;;;;;;;;5269738;28;20370;-84
2022/07/14 05:58:25;;;;;;;18.90;5.67;;;;;;;;;;5281406;28;20021;-85
2022/07/14 06:00:57;;;;;;;15.90;4.95;;;;;;;;;;5285292;28;20281;-85
2022/07/14 06:03:28;;;;;;;12.00;4.60;;;;;;;;;;5279321;28;20053;-85
2022/07/14 06:06:03;;;;;;;14.80;4.38;;;;;;;;;;5263131;28;20037;-84
2022/07/14 06:08:35;;;;;;;21.63;4.93;;;;;;;;;;5262039;28;20478;-85
2022/07/14 06:11:07;;;;;;;12.63;3.95;;;;;;;;;;5278420;28;20056;-84
2022/07/14 06:13:40;;;;;;;11.70;4.30;;;;;;;;;;5263976;28;20388;-84
2022/07/14 06:16:12;;;;;;;21.05;5.68;;;;;;;;;;5262916;28;20079;-84
2022/07/14 06:18:43;;;;;;;14.05;4.57;;;;;;;;;;5260609;28;20020;-84
2022/07/14 06:21:14;;;;;;;18.50;4.23;;;;;;;;;;5275919;28;20501;-84
2022/07/14 06:23:46;;;;;;;11.93;4.33;;;;;;;;;;5284385;28;20393;-84
2022/07/14 06:26:17;;;;;;;12.23;4.45;;;;;;;;;;5283157;28;20280;-84
2022/07/14 06:28:48;;;;;;;12.93;4.07;;;;;;;;;;5279448;28;20406;-84
2022/07/14 06:31:19;;;;;;;17.97;4.43;;;;;;;;;;5276375;28;20037;-84
2022/07/14 06:33:50;;;;;;;16.20;4.50;;;;;;;;;;5255532;28;20272;-84
2022/07/14 06:36:21;;;;;;;9.77;3.60;;;;;;;;;;5270191;28;20040;-84
2022/07/14 06:38:53;;;;;;;13.77;3.77;;;;;;;;;;5268659;28;20583;-84
2022/07/14 06:41:24;;;;;;;12.95;3.90;;;;;;;;;;5274710;28;20029;-84
2022/07/14 06:43:55;;;;;;;11.23;4.23;;;;;;;;;;5277513;28;20172;-84
2022/07/14 06:46:28;;;;;;;15.02;3.92;;;;;;;;;;5278140;28;20469;-85
2022/07/14 06:48:59;;;;;;;13.85;4.03;;;;;;;;;;5261810;28;20017;-84
2022/07/14 06:51:30;;;;;;;12.40;3.63;;;;;;;;;;5264347;28;20040;-84
2022/07/14 06:54:01;;;;;;;16.67;4.13;;;;;;;;;;5263444;28;20457;-84
2022/07/14 06:56:32;;;;;;;13.53;3.87;;;;;;;;;;5282160;28;20420;-84
2022/07/14 06:59:04;;;;;;;13.23;4.37;;;;;;;;;;5282502;28;20021;-84
2022/07/14 07:01:37;;;;;;;13.38;4.70;;;;;;;;;;5263171;28;20144;-84
2022/07/14 07:04:08;;;;;;;10.85;3.42;;;;;;;;;;5263976;28;20074;-84
2022/07/14 07:06:45;;;;;;;11.53;3.57;;;;;;;;;;5264626;28;20119;-84
2022/07/14 07:09:18;;;;;;;15.15;3.97;;;;;;;;;;5263219;28;20124;-84
2022/07/14 07:11:49;;;;;;;10.13;3.63;;;;;;;;;;5263548;28;20045;-84
2022/07/14 07:14:20;;;;;;;11.23;3.73;;;;;;;;;;5282051;28;20044;-85
2022/07/14 07:16:51;;;;;;;14.43;4.70;;;;;;;;;;5280017;28;20033;-82
2022/07/14 07:19:23;;;;;;;12.50;3.53;;;;;;;;;;5282116;28;20025;-84
2022/07/14 07:21:54;;;;;;;11.60;3.90;;;;;;;;;;5262582;28;20267;-84
2022/07/14 07:24:25;;;;;;;10.40;3.35;;;;;;;;;;5279613;28;20272;-84
2022/07/14 07:26:56;;;;;;;11.87;3.87;;;;;;;;;;5279710;28;20146;-84
2022/07/14 07:29:28;;;;;;;11.38;3.25;;;;;;;;;;5263820;28;20473;-84
2022/07/14 07:31:59;;;;;;;12.68;3.78;;;;;;;;;;5262467;28;20023;-84
2022/07/14 07:34:31;;;;;;;12.57;3.40;;;;;;;;;;5282646;28;20037;-84
2022/07/14 07:37:02;;;;;;;9.85;3.15;;;;;;;;;;5282025;28;20025;-84
2022/07/14 07:39:34;;;;;;;7.85;2.58;;;;;;;;;;5284834;28;20481;-85
2022/07/14 07:42:05;;;;;;;7.83;2.53;;;;;;;;;;5285097;28;20021;-84
2022/07/14 07:44:36;;;;;;;10.60;3.47;;;;;;;;;;5265893;28;20298;-84
2022/07/14 07:47:07;;;;;;;11.10;3.20;;;;;;;;;;5280914;28;20469;-84
2022/07/14 07:49:39;;;;;;;9.45;2.80;;;;;;;;;;5279101;28;20033;-84
2022/07/14 07:52:10;;;;;;;8.37;2.23;;;;;;;;;;5285116;28;20017;-83
2022/07/14 07:54:41;;;;;;;9.23;2.63;;;;;;;;;;5284830;28;20040;-83
2022/07/14 07:57:12;;;;;;;10.43;2.70;;;;;;;;;;5266087;28;20040;-83
2022/07/14 07:59:44;;;;;;;8.50;2.57;;;;;;;;;;5266672;28;20017;-83
2022/07/14 08:02:15;;;;;;;8.25;2.85;;;;;;;;;;5276302;28;20029;-82
2022/07/14 08:04:46;;;;;;;7.10;2.40;;;;;;;;;;5263887;28;20018;-83
2022/07/14 08:07:18;;;;;;;9.63;2.67;;;;;;;;;;5263984;28;20021;-83
2022/07/14 08:09:49;;;;;;;8.10;2.28;;;;;;;;;;5263536;28;20014;-83
2022/07/14 08:12:20;;;;;;;8.33;2.60;;;;;;;;;;5264035;28;20041;-83
2022/07/14 08:14:52;;;;;;;10.47;2.77;;;;;;;;;;5262978;28;20048;-82
2022/07/14 08:17:23;;;;;;;7.30;2.33;;;;;;;;;;5263320;28;20041;-83
2022/07/14 08:19:55;;;;;;;8.63;2.72;;;;;;;;;;5263578;28;20020;-83
2022/07/14 08:22:27;;;;;;;10.32;2.60;;;;;;;;;;5263687;28;20040;-83
2022/07/14 08:24:58;;;;;;;7.82;2.50;;;;;;;;;;5265749;28;20402;-82
2022/07/14 08:27:29;;;;;;;7.43;1.93;;;;;;;;;;5245669;28;20107;-83
2022/07/14 08:30:00;;;;;;;7.00;2.30;;;;;;;;;;5263889;28;20021;-83
2022/07/14 08:32:39;;;;;;;9.15;2.40;;;;;;;;;;5262023;28;20025;-83
2022/07/14 08:35:11;;;;;;;8.75;3.10;;;;;;;;;;5277345;28;20032;-83
2022/07/14 08:37:43;;;;;;;7.18;2.40;;;;;;;;;;5284723;28;20025;-83
2022/07/14 08:40:16;;;;;;;7.90;2.25;;;;;;;;;;5265988;28;20098;-83
2022/07/14 08:42:48;;;;;;;6.22;2.10;;;;;;;;;;5283926;28;20025;-83
2022/07/14 08:45:20;;;;;;;4.53;2.00;;;;;;;;;;5283268;28;20024;-83
2022/07/14 08:47:52;;;;;;;8.77;2.65;;;;;;;;;;5265358;28;20111;-83
2022/07/14 08:50:25;;;;;;;7.63;2.40;;;;;;;;;;5285023;28;20100;-82
2022/07/14 08:52:56;;;;;;;6.07;2.58;;;;;;;;;;5267626;28;20029;-82
2022/07/14 08:55:28;;;;;;;6.38;2.45;;;;;;;;;;5265100;28;20386;-83
2022/07/14 08:57:59;;;;;;;8.05;2.25;;;;;;;;;;5282088;28;20045;-83
2022/07/14 09:00:30;;;;;;;8.33;2.43;;;;;;;;;;5265778;28;20025;-83
2022/07/14 09:03:01;;;;;;;7.67;2.50;;;;;;;;;;5284576;28;20033;-82
2022/07/14 09:05:33;;;;;;;5.80;2.07;;;;;;;;;;5284330;28;20335;-83
2022/07/14 09:08:04;;;;;;;6.28;2.20;;;;;;;;;;5283035;28;20477;-83
2022/07/14 09:10:37;;;;;;;6.73;2.33;;;;;;;;;;5283035;28;20536;-83
2022/07/14 09:13:12;;;;;;;5.57;2.20;;;;;;;;;;5265243;28;20047;-83
2022/07/14 09:15:44;;;;;;;7.65;2.55;;;;;;;;;;5284881;28;20021;-83
2022/07/14 09:18:23;;;;;;;6.95;2.10;;;;;;;;;;5266393;28;20476;-82
2022/07/14 09:20:55;;;;;;;7.65;2.50;;;;;;;;;;5266681;28;20039;-82
2022/07/14 09:23:27;;;;;;;10.60;2.47;;;;;;;;;;5267687;28;20025;-82
2022/07/14 09:26:13;;;;;;;9.65;2.47;;;;;;;;;;5285660;28;20035;-83
2022/07/14 09:28:46;;;;;;;6.78;2.28;;;;;;;;;;5261787;28;20377;-83
2022/07/14 09:31:21;;;;;;;6.07;1.90;;;;;;;;;;5244687;28;20079;-83
2022/07/14 09:33:55;;;;;;;7.35;2.30;;;;;;;;;;5243633;28;20053;-83
2022/07/14 09:36:31;;;;;;;4.78;2.05;;;;;;;;;;5244857;28;20040;-83
2022/07/14 09:39:09;;;;;;;5.20;1.70;;;;;;;;;;5282714;28;20032;-83
2022/07/14 09:41:51;;;;;;;3.88;1.70;;;;;;;;;;5264893;28;20021;-83
2022/07/14 09:44:22;;;;;;;5.28;1.52;;;;;;;;;;5283685;28;20071;-81
2022/07/14 09:46:54;;;;;;;7.32;1.90;;;;;;;;;;5270296;28;20473;-82
2022/07/14 09:49:27;;;;;;;6.80;2.00;;;;;;;;;;5286893;28;20390;-83
2022/07/14 09:51:58;;;;;;;10.23;2.13;;;;;;;;;;5268247;28;20027;-82
2022/07/14 09:55:02;;;;;;;5.20;1.83;;;;;;;;;;5262493;28;20025;-82
2022/07/14 09:57:38;;;;;;;6.32;1.33;;;;;;;;;;5237956;28;20123;-82
2022/07/14 10:00:16;;;;;;;5.90;1.70;;;;;;;;;;5280505;28;20021;-82
2022/07/14 10:02:47;;;;;;;5.13;1.50;;;;;;;;;;5263371;28;20044;-82
2022/07/14 10:05:18;;;;;;;3.10;0.93;;;;;;;;;;5263900;28;20402;-82
2022/07/14 10:07:50;;;;;;;4.50;1.30;;;;;;;;;;5244755;28;20283;-82
2022/07/14 10:10:21;;;;;;;3.90;1.60;;;;;;;;;;5263049;28;20009;-83
2022/07/14 10:12:55;;;;;;;3.87;1.23;;;;;;;;;;5282802;28;20032;-82
2022/07/14 10:15:26;;;;;;;4.23;1.70;;;;;;;;;;5282872;28;20240;-82
2022/07/14 10:18:00;;;;;;;3.97;1.80;;;;;;;;;;5282602;28;20295;-83
2022/07/14 10:20:32;;;;;;;6.07;1.60;;;;;;;;;;5283201;28;20419;-83
2022/07/14 10:23:03;;;;;;;5.03;1.00;;;;;;;;;;5283740;28;20093;-82
2022/07/14 10:25:34;;;;;;;3.47;1.02;;;;;;;;;;5283435;28;20013;-82
2022/07/14 10:28:05;;;;;;;3.87;1.13;;;;;;;;;;5265362;28;20182;-82
2022/07/14 10:30:37;;;;;;;4.95;1.38;;;;;;;;;;5282950;28;20040;-82
2022/07/14 10:33:37;;;;;;;3.03;1.27;;;;;;;;;;5283290;28;20136;-84
2022/07/14 10:36:14;;;;;;;5.25;1.60;;;;;;;;;;5227479;28;20041;-83
2022/07/14 10:38:56;;;;;;;4.78;1.60;;;;;;;;;;5263926;28;20060;-83
2022/07/14 10:41:46;;;;;;;8.07;1.35;;;;;;;;;;5281570;28;20385;-83
2022/07/14 10:44:21;;;;;;;4.38;1.20;;;;;;;;;;5262370;28;20029;-83
2022/07/14 10:47:06;;;;;;;8.02;1.35;;;;;;;;;;5280684;28;20036;-83
2022/07/14 10:49:56;;;;;;;30.35;2.60;;;;;;;;;;5281165;28;20048;-83
2022/07/14 10:52:29;;;;;;;8.40;1.55;;;;;;;;;;5282318;28;20152;-83
2022/07/14 10:55:19;;;;;;;19.92;2.28;;;;;;;;;;5258929;28;20048;-83
2022/07/14 10:58:04;;;;;;;8.57;1.40;;;;;;;;;;5261069;28;20049;-83
2022/07/14 11:00:41;;;;;;;14.15;1.35;;;;;;;;;;5261248;28;20022;-83
2022/07/14 11:03:31;;;;;;;4.55;1.58;;;;;;;;;;5258913;28;20382;-83
2022/07/14 11:06:09;;;;;;;12.77;1.48;;;;;;;;;;5274386;28;20936;-83
2022/07/14 11:08:41;;;;;;;2.75;1.17;;;;;;;;;;5282471;28;20504;-83
2022/07/14 11:11:16;;;;;;;19.77;1.77;;;;;;;;;;5285243;28;20053;-83
2022/07/14 11:13:59;;;;;;;7.47;1.70;;;;;;;;;;5285704;28;20489;-83
2022/07/14 11:16:50;;;;;;;4.97;1.13;;;;;;;;;;5284829;28;20048;-83
2022/07/14 11:19:25;;;;;;;4.45;1.15;;;;;;;;;;5271779;28;20474;-83
2022/07/14 11:22:08;;;;;;;3.60;1.23;;;;;;;;;;5264372;28;20021;-83
2022/07/14 11:24:46;;;;;;;8.70;1.45;;;;;;;;;;5270462;28;20024;-83
2022/07/14 11:27:29;;;;;;;20.27;2.05;;;;;;;;;;5285328;28;20494;-83
2022/07/14 11:30:19;;;;;;;19.65;2.08;;;;;;;;;;5287449;28;20053;-82
2022/07/14 11:32:57;;;;;;;29.00;3.63;;;;;;;;;;5288916;28;20033;-83
2022/07/14 11:38:37;;;;;;;11.70;1.77;;;;;;;;;;5287057;28;20033;-83
2022/07/14 11:41:10;;;;;;;18.83;2.17;;;;;;;;;;5285952;28;20021;-83
2022/07/14 11:43:50;;;;;;;8.32;1.77;;;;;;;;;;5285752;28;20029;-83
2022/07/14 11:46:21;;;;;;;7.15;1.42;;;;;;;;;;5285357;28;20072;-83
2022/07/14 11:48:53;;;;;;;34.22;2.90;;;;;;;;;;5285527;28;20484;-83
2022/07/14 11:51:29;;;;;;;12.75;1.52;;;;;;;;;;5285299;28;20067;-83
2022/07/14 11:54:04;;;;;;;5.15;1.38;;;;;;;;;;5284996;28;20424;-83
2022/07/14 11:56:35;;;;;;;5.25;1.30;;;;;;;;;;5284156;28;20034;-83
2022/07/14 11:59:07;;;;;;;6.57;1.13;;;;;;;;;;5266913;28;20111;-83
2022/07/14 12:01:38;;;;;;;6.40;1.10;;;;;;;;;;5285168;28;20025;-83
2022/07/14 12:04:22;;;;;;;4.40;1.30;;;;;;;;;;5284930;28;20120;-83
2022/07/14 12:06:53;;;;;;;7.25;1.45;;;;;;;;;;5265320;28;20095;-83
2022/07/14 12:09:30;;;;;;;6.90;1.27;;;;;;;;;;5284821;28;20021;-83
2022/07/14 12:12:01;;;;;;;7.63;1.30;;;;;;;;;;5284597;28;20096;-83
2022/07/14 12:14:33;;;;;;;6.18;1.40;;;;;;;;;;5267465;28;20053;-82
2022/07/14 12:17:04;;;;;;;7.50;1.40;;;;;;;;;;5283911;28;20068;-83
2022/07/14 12:19:36;;;;;;;9.93;1.67;;;;;;;;;;5284236;28;20090;-83
2022/07/14 12:22:07;;;;;;;4.78;1.20;;;;;;;;;;5284400;28;20108;-83
2022/07/14 12:24:38;;;;;;;3.72;1.13;;;;;;;;;;5266602;28;20025;-83
2022/07/14 12:27:10;;;;;;;5.57;1.30;;;;;;;;;;5261780;28;20068;-83
2022/07/14 12:29:46;;;;;;;5.20;1.15;;;;;;;;;;5263643;28;20562;-83
2022/07/14 12:32:17;;;;;;;3.58;1.38;;;;;;;;;;5263059;28;20033;-83
2022/07/14 12:34:48;;;;;;;6.57;1.60;;;;;;;;;;5263355;28;20029;-83
2022/07/14 12:37:20;;;;;;;7.07;1.30;;;;;;;;;;5284022;28;20035;-83
2022/07/14 12:39:51;;;;;;;2.65;1.02;;;;;;;;;;5266075;28;20025;-83
2022/07/14 12:42:22;;;;;;;5.43;1.23;;;;;;;;;;5284478;28;20032;-83
2022/07/14 12:45:02;;;;;;;6.90;1.20;;;;;;;;;;5283615;28;20248;-83
2022/07/14 12:47:50;;;;;;;5.13;1.25;;;;;;;;;;5270830;28;20517;-83
2022/07/14 12:50:25;;;;;;;3.70;1.38;;;;;;;;;;5278442;28;20425;-83
2022/07/14 12:52:57;;;;;;;1.65;0.90;;;;;;;;;;5262865;28;20025;-83
2022/07/14 12:55:29;;;;;;;8.93;1.20;;;;;;;;;;5249561;28;20032;-83
2022/07/14 12:58:02;;;;;;;3.95;1.20;;;;;;;;;;5265782;28;20041;-83
2022/07/14 13:00:33;;;;;;;3.60;1.20;;;;;;;;;;5265873;28;20056;-83
2022/07/14 13:03:13;;;;;;;5.95;1.23;;;;;;;;;;5265928;28;20048;-83
2022/07/14 13:05:45;;;;;;;13.38;1.65;;;;;;;;;;5259285;28;20508;-83
2022/07/14 13:08:37;;;;;;;18.85;2.30;;;;;;;;;;5255073;28;20037;-82
2022/07/14 13:11:09;;;;;;;9.43;1.45;;;;;;;;;;5283512;28;20045;-82
2022/07/14 13:13:45;;;;;;;5.70;1.30;;;;;;;;;;5268609;28;20025;-82
2022/07/14 13:16:28;;;;;;;7.20;1.10;;;;;;;;;;5268820;28;20063;-82
2022/07/14 13:19:29;;;;;;;5.30;1.55;;;;;;;;;;5270862;28;20029;-82
2022/07/14 13:22:04;;;;;;;4.20;1.25;;;;;;;;;;5240913;28;20127;-83
2022/07/14 13:24:35;;;;;;;4.70;1.65;;;;;;;;;;5284068;28;20024;-82
2022/07/14 13:27:08;;;;;;;5.10;1.13;;;;;;;;;;5263960;28;20375;-82
2022/07/14 13:29:42;;;;;;;4.25;1.10;;;;;;;;;;5246876;28;20029;-83
2022/07/14 13:32:14;;;;;;;4.40;1.60;;;;;;;;;;5263031;28;20075;-83
2022/07/14 13:34:46;;;;;;;5.20;1.23;;;;;;;;;;5282621;28;20127;-83
2022/07/14 13:37:18;;;;;;;6.57;0.98;;;;;;;;;;5283325;28;20037;-83
2022/07/14 13:39:50;;;;;;;3.67;1.50;;;;;;;;;;5283141;28;20095;-83
2022/07/14 13:42:21;;;;;;;5.28;1.52;;;;;;;;;;5282674;28;20033;-83
2022/07/14 13:44:52;;;;;;;4.30;1.38;;;;;;;;;;5269384;28;20029;-83
2022/07/14 13:47:23;;;;;;;5.33;1.43;;;;;;;;;;5262357;28;20021;-83
2022/07/14 13:52:44;;;;;;;7.10;1.20;;;;;;;;;;5283334;28;20497;-83
2022/07/14 13:55:16;;;;;;;5.53;1.20;;;;;;;;;;5283283;28;20098;-84
2022/07/14 13:57:47;;;;;;;3.30;0.90;;;;;;;;;;5282116;28;20034;-83
2022/07/14 14:00:18;;;;;;;2.37;0.80;;;;;;;;;;5283683;28;20380;-82
2022/07/14 14:05:40;;;;;;;5.15;1.58;;;;;;;;;;5282806;28;20032;-83
2022/07/14 14:08:11;;;;;;;5.77;1.13;;;;;;;;;;5281742;28;20039;-83
2022/07/14 14:10:42;;;;;;;7.67;1.27;;;;;;;;;;5281986;28;20283;-83
2022/07/14 14:13:13;;;;;;;6.07;1.38;;;;;;;;;;5293889;28;20184;-83
2022/07/14 14:15:45;;;;;;;3.50;1.17;;;;;;;;;;5257572;28;20030;-83
2022/07/14 14:18:19;;;;;;;5.95;1.17;;;;;;;;;;5269121;28;20044;-83
2022/07/14 14:20:50;;;;;;;6.88;1.40;;;;;;;;;;5275083;28;20545;-83
2022/07/14 14:23:21;;;;;;;6.15;1.70;;;;;;;;;;5264248;28;20179;-83
2022/07/14 14:25:53;;;;;;;12.37;1.70;;;;;;;;;;5280745;28;20025;-83
2022/07/14 14:28:24;;;;;;;4.65;1.30;;;;;;;;;;5288969;28;20082;-83
2022/07/14 14:30:55;;;;;;;8.33;1.40;;;;;;;;;;5265881;28;20162;-83
2022/07/14 14:33:27;;;;;;;12.40;1.47;;;;;;;;;;5293000;28;20025;-83
2022/07/14 14:35:59;;;;;;;7.07;1.25;;;;;;;;;;5284040;28;20361;-83
2022/07/14 14:38:30;;;;;;;9.47;2.10;;;;;;;;;;5290796;28;20024;-83
2022/07/14 14:41:01;;;;;;;15.83;1.73;;;;;;;;;;5265950;28;20274;-83
2022/07/14 14:43:32;;;;;;;6.63;1.87;;;;;;;;;;5280722;28;20299;-83
2022/07/14 14:46:04;;;;;;;4.00;1.35;;;;;;;;;;5274956;28;20481;-83
2022/07/14 14:48:36;;;;;;;7.22;1.48;;;;;;;;;;5276557;28;20355;-83
2022/07/14 14:51:08;;;;;;;3.83;1.30;;;;;;;;;;5268256;28;20485;-83
2022/07/14 14:53:39;;;;;;;4.97;1.50;;;;;;;;;;5281068;28;20056;-83
2022/07/14 14:56:10;;;;;;;5.17;1.23;;;;;;;;;;5262401;28;20069;-83
2022/07/14 14:58:41;;;;;;;6.87;1.87;;;;;;;;;;5286142;28;20127;-83
2022/07/14 15:01:12;;;;;;;5.43;1.40;;;;;;;;;;5281264;28;20039;-82
2022/07/14 15:03:44;;;;;;;7.20;1.60;;;;;;;;;;5283970;28;20363;-82
2022/07/14 15:06:15;;;;;;;6.72;1.90;;;;;;;;;;5276785;28;20780;-82
2022/07/14 15:08:46;;;;;;;11.13;1.80;;;;;;;;;;5277267;28;20402;-82
2022/07/14 15:11:17;;;;;;;7.67;1.80;;;;;;;;;;5281368;28;20052;-82
2022/07/14 15:13:49;;;;;;;4.27;1.23;;;;;;;;;;5284474;28;20441;-82
2022/07/14 15:16:20;;;;;;;3.90;1.57;;;;;;;;;;5270760;28;20060;-82
2022/07/14 15:18:51;;;;;;;7.03;1.70;;;;;;;;;;5270587;28;20325;-82
2022/07/14 15:21:23;;;;;;;4.37;1.20;;;;;;;;;;5284515;28;20282;-83
2022/07/14 15:23:54;;;;;;;9.45;1.80;;;;;;;;;;5278351;28;20342;-82
2022/07/14 15:26:25;;;;;;;6.55;1.83;;;;;;;;;;5280394;28;20024;-82
2022/07/14 15:28:57;;;;;;;3.13;1.23;;;;;;;;;;5283148;28;20024;-83
2022/07/14 15:31:29;;;;;;;5.22;1.25;;;;;;;;;;5275749;28;20032;-83
2022/07/14 15:34:00;;;;;;;6.70;1.27;;;;;;;;;;5278587;28;20462;-83
2022/07/14 15:36:34;;;;;;;6.60;1.20;;;;;;;;;;5275637;28;20392;-83
2022/07/14 15:41:56;;;;;;;4.40;1.27;;;;;;;;;;5277419;28;20037;-83
2022/07/14 15:44:27;;;;;;;7.13;1.57;;;;;;;;;;5264484;28;20400;-83
2022/07/14 15:46:58;;;;;;;6.20;1.23;;;;;;;;;;5271788;28;20275;-83
2022/07/14 15:49:29;;;;;;;8.13;1.47;;;;;;;;;;5277769;28;20298;-83
2022/07/14 15:52:02;;;;;;;5.60;1.60;;;;;;;;;;5277011;28;20076;-83
2022/07/14 15:54:33;;;;;;;5.20;1.60;;;;;;;;;;5296136;28;20502;-83
2022/07/14 15:57:05;;;;;;;6.75;1.50;;;;;;;;;;5282759;28;20123;-83